createdAt,value
2022-10-30T00:00:10.406Z,74.93
2022-10-30T00:03:02.565Z,75.01
2022-10-30T00:05:34.573Z,75.03
2022-10-30T00:08:06.437Z,74.94
2022-10-30T00:10:38.525Z,74.99
2022-10-30T00:13:10.314Z,74.94
2022-10-30T00:15:47.622Z,74.96
2022-10-30T00:18:20.419Z,75.08
2022-10-30T00:20:52.298Z,74.94
2022-10-30T00:23:23.870Z,74.95
2022-10-30T00:25:55.505Z,75.10
2022-10-30T00:28:27.011Z,75.10
2022-10-30T00:31:02.260Z,75.16
2022-10-30T00:33:34.494Z,75.21
2022-10-30T00:36:06.786Z,75.21
2022-10-30T00:38:38.948Z,75.17
2022-10-30T00:41:15.631Z,75.22
2022-10-30T00:43:47.695Z,75.09
2022-10-30T00:46:25.279Z,75.09
2022-10-30T00:48:59.822Z,75.11
2022-10-30T00:51:33.597Z,75.22
2022-10-30T00:54:04.469Z,75.25
2022-10-30T00:56:37.766Z,75.38
2022-10-30T00:59:18.215Z,75.40
2022-10-30T01:01:51.628Z,75.44
2022-10-30T01:04:29.016Z,75.36
2022-10-30T01:07:06.702Z,75.30
2022-10-30T01:09:38.952Z,75.31
2022-10-30T01:12:11.215Z,75.27
2022-10-30T01:14:49.497Z,75.16
2022-10-30T01:17:48.073Z,75.18
2022-10-30T01:20:36.790Z,75.24
2022-10-30T01:23:24.234Z,75.25
2022-10-30T01:26:07.059Z,75.21
2022-10-30T01:28:57.636Z,75.28
2022-10-30T01:31:42.238Z,75.18
2022-10-30T01:34:21.543Z,75.22
2022-10-30T01:37:01.902Z,75.22
2022-10-30T01:39:37.070Z,75.20
2022-10-30T01:42:27.197Z,75.25
2022-10-30T01:44:59.028Z,75.27
2022-10-30T01:47:45.600Z,75.29
2022-10-30T01:50:32.541Z,75.30
2022-10-30T01:53:13.737Z,75.17
2022-10-30T01:55:57.552Z,75.12
2022-10-30T01:58:34.026Z,75.09
2022-10-30T02:01:06.269Z,75.09
2022-10-30T02:03:37.914Z,75.14
2022-10-30T02:06:09.870Z,75.15
2022-10-30T02:08:44.737Z,75.13
2022-10-30T02:11:39.127Z,75.30
2022-10-30T02:14:10.222Z,75.19
2022-10-30T02:16:53.929Z,75.30
2022-10-30T02:19:25.592Z,75.22
2022-10-30T02:22:10.743Z,75.21
2022-10-30T02:24:47.805Z,75.15
2022-10-30T02:27:19.401Z,75.18
2022-10-30T02:29:51.037Z,75.24
2022-10-30T02:32:22.686Z,75.17
2022-10-30T02:34:54.243Z,75.19
2022-10-30T02:37:25.898Z,75.29
2022-10-30T02:39:57.526Z,75.22
2022-10-30T02:42:29.208Z,75.36
2022-10-30T02:45:00.884Z,75.46
2022-10-30T02:47:35.124Z,75.46
2022-10-30T02:50:08.378Z,75.47
2022-10-30T02:52:40.065Z,75.45
2022-10-30T02:55:12.453Z,75.63
2022-10-30T02:57:47.149Z,75.79
2022-10-30T03:00:21.093Z,75.80
2022-10-30T03:02:57.692Z,75.82
2022-10-30T03:06:00.666Z,75.93
2022-10-30T03:08:22.245Z,76.04
2022-10-30T03:10:53.998Z,76.08
2022-10-30T03:13:25.722Z,76.03
2022-10-30T03:16:02.619Z,76.05
2022-10-30T03:18:58.780Z,76.26
2022-10-30T03:21:29.912Z,76.24
2022-10-30T03:24:01.868Z,76.29
2022-10-30T03:26:33.590Z,76.22
2022-10-30T03:29:27.106Z,76.18
2022-10-30T03:31:58.734Z,76.15
2022-10-30T03:34:31.471Z,76.24
2022-10-30T03:37:03.243Z,76.31
2022-10-30T03:39:45.885Z,76.29
2022-10-30T03:42:17.882Z,76.49
2022-10-30T03:44:49.493Z,76.43
2022-10-30T03:47:21.051Z,76.50
2022-10-30T03:49:52.620Z,76.52
2022-10-30T03:52:24.351Z,76.61
2022-10-30T03:54:56.985Z,76.69
2022-10-30T03:57:31.033Z,76.68
2022-10-30T04:00:02.791Z,76.75
2022-10-30T04:02:34.530Z,76.75
2022-10-30T04:05:11.434Z,76.77
2022-10-30T04:07:43.187Z,76.88
2022-10-30T04:10:21.104Z,76.91
2022-10-30T04:13:05.251Z,77.06
2022-10-30T04:15:58.210Z,77.17
2022-10-30T04:18:31.036Z,77.32
2022-10-30T04:21:05.771Z,77.26
2022-10-30T04:23:37.373Z,77.24
2022-10-30T04:26:09.174Z,77.30
2022-10-30T04:28:40.860Z,77.37
2022-10-30T04:31:12.566Z,77.39
2022-10-30T04:33:46.966Z,77.50
2022-10-30T04:36:19.008Z,77.58
2022-10-30T04:38:53.355Z,77.72
2022-10-30T04:41:25.148Z,77.73
2022-10-30T04:43:56.951Z,77.76
2022-10-30T04:46:30.700Z,77.82
2022-10-30T04:49:04.977Z,77.93
2022-10-30T04:51:36.695Z,77.98
2022-10-30T04:54:08.393Z,78.01
2022-10-30T04:56:40.165Z,77.91
2022-10-30T04:59:14.291Z,77.94
2022-10-30T05:01:46.047Z,77.96
2022-10-30T05:04:22.087Z,78.06
2022-10-30T05:07:24.434Z,78.03
2022-10-30T05:09:46.534Z,78.18
2022-10-30T05:12:44.909Z,78.14
2022-10-30T05:15:17.685Z,78.24
2022-10-30T05:17:52.327Z,78.23
2022-10-30T05:20:24.490Z,78.31
2022-10-30T05:23:00.238Z,78.31
2022-10-30T05:25:35.576Z,78.49
2022-10-30T05:28:08.664Z,78.50
2022-10-30T05:31:00.159Z,78.54
2022-10-30T05:33:31.873Z,78.60
2022-10-30T05:36:05.108Z,78.63
2022-10-30T05:38:40.077Z,78.64
2022-10-30T05:41:17.071Z,78.78
2022-10-30T05:43:51.461Z,78.77
2022-10-30T05:46:23.042Z,78.84
2022-10-30T05:48:57.407Z,78.82
2022-10-30T05:51:29.420Z,78.77
2022-10-30T05:54:11.610Z,78.80
2022-10-30T05:56:45.227Z,78.80
2022-10-30T05:59:18.127Z,78.83
2022-10-30T06:01:50.785Z,78.82
2022-10-30T06:04:24.336Z,78.97
2022-10-30T06:06:56.038Z,78.93
2022-10-30T06:09:27.753Z,78.93
2022-10-30T06:11:59.535Z,79.01
2022-10-30T06:14:34.131Z,78.92
2022-10-30T06:17:05.725Z,79.00
2022-10-30T06:19:40.196Z,78.88
2022-10-30T06:22:17.803Z,79.02
2022-10-30T06:25:07.228Z,79.05
2022-10-30T06:27:39.107Z,79.04
2022-10-30T06:30:12.306Z,79.00
2022-10-30T06:32:48.668Z,78.98
2022-10-30T06:35:23.453Z,79.09
2022-10-30T06:37:56.410Z,78.98
2022-10-30T06:40:34.018Z,79.03
2022-10-30T06:43:08.815Z,79.02
2022-10-30T06:45:42.429Z,79.08
2022-10-30T06:48:36.525Z,78.93
2022-10-30T06:51:09.848Z,79.02
2022-10-30T06:53:41.563Z,78.95
2022-10-30T06:56:13.165Z,78.99
2022-10-30T06:58:45.489Z,78.91
2022-10-30T07:01:44.700Z,79.02
2022-10-30T07:04:13.744Z,78.95
2022-10-30T07:06:45.282Z,78.83
2022-10-30T07:09:16.971Z,78.82
2022-10-30T07:11:48.771Z,78.87
2022-10-30T07:14:20.403Z,78.79
2022-10-30T07:16:52.393Z,78.78
2022-10-30T07:19:24.084Z,78.78
2022-10-30T07:21:55.816Z,78.68
2022-10-30T07:24:27.547Z,78.56
2022-10-30T07:26:59.440Z,78.56
2022-10-30T07:29:33.846Z,78.54
2022-10-30T07:32:06.173Z,78.47
2022-10-30T07:34:37.811Z,78.47
2022-10-30T07:37:09.577Z,78.31
2022-10-30T07:39:41.153Z,78.20
2022-10-30T07:42:12.788Z,78.30
2022-10-30T07:44:44.421Z,78.13
2022-10-30T07:47:16.717Z,78.03
2022-10-30T07:49:48.337Z,78.11
2022-10-30T07:52:20.099Z,77.94
2022-10-30T07:54:52.231Z,77.75
2022-10-30T07:57:23.900Z,77.61
2022-10-30T07:59:58.150Z,77.54
2022-10-30T08:02:33.083Z,77.66
2022-10-30T08:05:05.425Z,77.50
2022-10-30T08:07:39.147Z,77.48
2022-10-30T08:10:11.860Z,77.18
2022-10-30T08:12:44.556Z,77.17
2022-10-30T08:15:16.810Z,77.11
2022-10-30T08:17:49.977Z,76.63
2022-10-30T08:20:24.057Z,76.72
2022-10-30T08:22:57.555Z,76.73
2022-10-30T08:25:32.191Z,76.50
2022-10-30T08:28:06.751Z,76.28
2022-10-30T08:30:39.448Z,75.67
2022-10-30T08:33:14.573Z,75.07
2022-10-30T08:35:52.129Z,74.54
2022-10-30T08:38:23.753Z,73.68
2022-10-30T08:40:55.753Z,72.93
2022-10-30T08:43:27.558Z,71.98
2022-10-30T08:46:01.878Z,71.91
2022-10-30T08:48:33.555Z,71.23
2022-10-30T08:51:07.093Z,71.21
2022-10-30T08:53:38.717Z,70.55
2022-10-30T08:56:11.029Z,70.21
2022-10-30T08:58:42.671Z,69.55
2022-10-30T09:01:14.367Z,69.20
2022-10-30T09:03:46.330Z,68.74
2022-10-30T09:06:19.361Z,68.05
2022-10-30T09:08:50.982Z,67.00
2022-10-30T09:11:22.627Z,65.48
2022-10-30T09:13:54.261Z,63.46
2022-10-30T09:16:25.881Z,61.54
2022-10-30T09:18:57.497Z,60.09
2022-10-30T09:21:29.053Z,59.28
2022-10-30T09:24:00.762Z,58.81
2022-10-30T09:26:33.598Z,58.84
2022-10-30T09:29:05.279Z,58.68
2022-10-30T09:31:36.887Z,58.87
2022-10-30T09:34:08.531Z,59.22
2022-10-30T09:36:40.377Z,59.32
2022-10-30T09:39:13.148Z,59.47
2022-10-30T09:42:06.010Z,59.52
2022-10-30T09:45:08.084Z,59.42
2022-10-30T09:47:54.900Z,59.79
2022-10-30T09:50:37.336Z,60.01
2022-10-30T09:53:23.047Z,59.90
2022-10-30T09:56:05.330Z,59.95
2022-10-30T09:58:48.695Z,59.98
2022-10-30T10:01:29.211Z,59.93
2022-10-30T10:04:08.063Z,59.57
2022-10-30T10:06:45.965Z,57.65
2022-10-30T10:09:21.816Z,54.68
2022-10-30T10:11:58.683Z,52.80
2022-10-30T10:14:34.106Z,51.71
2022-10-30T10:17:12.552Z,51.60
2022-10-30T10:19:50.884Z,51.24
2022-10-30T10:22:27.554Z,51.23
2022-10-30T10:24:59.727Z,50.99
2022-10-30T10:27:54.970Z,49.35
2022-10-30T10:30:31.317Z,46.84
2022-10-30T10:33:31.948Z,44.97
2022-10-30T10:36:12.622Z,42.27
2022-10-30T10:39:01.807Z,40.40
2022-10-30T10:41:53.520Z,38.70
2022-10-30T10:44:37.143Z,37.05
2022-10-30T10:47:19.770Z,35.55
2022-10-30T10:50:04.626Z,34.15
2022-10-30T10:52:42.063Z,33.31
2022-10-30T10:55:18.529Z,32.75
2022-10-30T10:57:52.655Z,32.65
2022-10-30T11:00:28.169Z,32.69
2022-10-30T11:03:06.832Z,33.38
2022-10-30T11:05:45.699Z,34.13
2022-10-30T11:08:20.943Z,34.80
2022-10-30T11:10:57.989Z,35.43
2022-10-30T11:13:35.645Z,35.99
2022-10-30T11:16:18.679Z,36.76
2022-10-30T11:18:53.745Z,37.26
2022-10-30T11:21:26.926Z,38.02
2022-10-30T11:23:58.510Z,38.18
2022-10-30T11:26:37.169Z,38.23
2022-10-30T11:29:15.191Z,38.33
2022-10-30T11:31:48.591Z,38.82
2022-10-30T11:34:34.553Z,39.19
2022-10-30T11:37:28.925Z,39.23
2022-10-30T11:40:08.573Z,39.30
2022-10-30T11:42:42.927Z,39.67
2022-10-30T11:45:19.747Z,39.25
2022-10-30T11:47:52.078Z,39.30
2022-10-30T11:50:25.899Z,39.49
2022-10-30T11:53:02.112Z,39.46
2022-10-30T11:55:38.561Z,39.07
2022-10-30T11:58:21.653Z,38.18
2022-10-30T12:01:20.760Z,37.80
2022-10-30T12:03:52.929Z,37.65
2022-10-30T12:06:30.454Z,37.84
2022-10-30T12:09:04.628Z,36.93
2022-10-30T12:11:38.770Z,35.82
2022-10-30T12:14:21.160Z,34.76
2022-10-30T12:16:54.675Z,33.49
2022-10-30T12:19:27.140Z,32.84
2022-10-30T12:22:01.570Z,32.44
2022-10-30T12:24:37.102Z,32.31
2022-10-30T12:27:19.673Z,32.38
2022-10-30T12:30:10.031Z,32.18
2022-10-30T12:32:49.568Z,31.67
2022-10-30T12:35:28.523Z,31.17
2022-10-30T12:38:02.601Z,30.89
2022-10-30T12:40:42.398Z,30.75
2022-10-30T12:43:22.226Z,30.83
2022-10-30T12:45:58.270Z,31.00
2022-10-30T12:48:37.789Z,30.97
2022-10-30T12:51:22.949Z,31.08
2022-10-30T12:54:01.915Z,31.27
2022-10-30T12:56:39.050Z,31.30
2022-10-30T12:59:30.147Z,32.16
2022-10-30T13:02:12.876Z,32.92
2022-10-30T13:04:49.270Z,33.96
2022-10-30T13:07:29.433Z,34.64
2022-10-30T13:10:14.006Z,35.40
2022-10-30T13:12:54.642Z,35.81
2022-10-30T13:15:29.608Z,36.49
2022-10-30T13:18:11.716Z,37.29
2022-10-30T13:20:45.481Z,37.87
2022-10-30T13:23:22.836Z,38.37
2022-10-30T13:26:06.600Z,38.88
2022-10-30T13:28:45.019Z,39.38
2022-10-30T13:31:27.976Z,39.81
2022-10-30T13:34:07.346Z,40.17
2022-10-30T13:36:48.021Z,40.53
2022-10-30T13:39:29.967Z,40.87
2022-10-30T13:42:24.770Z,41.33
2022-10-30T13:45:15.002Z,41.78
2022-10-30T13:47:57.228Z,41.98
2022-10-30T13:50:46.719Z,42.32
2022-10-30T13:53:21.874Z,42.95
2022-10-30T13:55:55.342Z,43.30
2022-10-30T13:58:35.434Z,43.59
2022-10-30T14:01:15.417Z,43.86
2022-10-30T14:03:58.287Z,43.74
2022-10-30T14:06:38.875Z,43.99
2022-10-30T14:09:21.010Z,44.28
2022-10-30T14:11:53.881Z,44.57
2022-10-30T14:14:32.327Z,44.94
2022-10-30T14:17:16.056Z,45.22
2022-10-30T14:20:18.465Z,45.23
2022-10-30T14:23:09.911Z,45.35
2022-10-30T14:25:43.145Z,45.61
2022-10-30T14:28:23.846Z,45.58
2022-10-30T14:31:07.671Z,45.79
2022-10-30T14:33:47.365Z,45.89
2022-10-30T14:36:46.972Z,46.13
2022-10-30T14:39:39.378Z,46.50
2022-10-30T14:42:20.746Z,46.68
2022-10-30T14:45:15.962Z,47.24
2022-10-30T14:47:55.748Z,47.57
2022-10-30T14:50:40.912Z,47.69
2022-10-30T14:53:31.763Z,48.00
2022-10-30T14:56:09.825Z,48.57
2022-10-30T14:58:42.559Z,49.02
2022-10-30T15:01:34.386Z,49.04
2022-10-30T15:04:16.291Z,49.62
2022-10-30T15:06:59.124Z,50.02
2022-10-30T15:09:42.828Z,50.19
2022-10-30T15:12:25.369Z,50.48
2022-10-30T15:15:00.529Z,50.89
2022-10-30T15:17:37.884Z,51.25
2022-10-30T15:20:17.142Z,51.44
2022-10-30T15:22:53.339Z,51.72
2022-10-30T15:25:29.275Z,51.99
2022-10-30T15:28:01.741Z,52.44
2022-10-30T15:30:33.747Z,52.78
2022-10-30T15:33:18.044Z,53.00
2022-10-30T15:35:50.985Z,53.33
2022-10-30T15:38:22.690Z,53.73
2022-10-30T15:41:00.164Z,53.94
2022-10-30T15:43:35.217Z,54.11
2022-10-30T15:46:12.074Z,54.49
2022-10-30T15:48:47.026Z,54.64
2022-10-30T15:51:23.036Z,54.90
2022-10-30T15:53:57.258Z,55.18
2022-10-30T15:56:32.766Z,55.50
2022-10-30T15:59:07.116Z,55.84
2022-10-30T16:01:46.123Z,56.14
2022-10-30T16:04:21.367Z,56.52
2022-10-30T16:06:55.075Z,56.84
2022-10-30T16:09:27.725Z,57.08
2022-10-30T16:12:02.326Z,57.30
2022-10-30T16:14:34.538Z,57.59
2022-10-30T16:17:06.423Z,57.88
2022-10-30T16:19:42.843Z,58.13
2022-10-30T16:22:19.165Z,58.33
2022-10-30T16:24:51.102Z,58.43
2022-10-30T16:27:24.732Z,58.67
2022-10-30T16:29:59.326Z,58.81
2022-10-30T16:32:33.555Z,59.00
2022-10-30T16:35:06.578Z,59.30
2022-10-30T16:37:41.237Z,59.49
2022-10-30T16:40:18.063Z,59.72
2022-10-30T16:42:54.677Z,59.87
2022-10-30T16:45:49.871Z,60.16
2022-10-30T16:48:28.045Z,60.39
2022-10-30T16:51:05.153Z,60.61
2022-10-30T16:53:37.011Z,60.79
2022-10-30T16:56:20.917Z,61.00
2022-10-30T16:58:53.458Z,61.19
2022-10-30T17:01:29.013Z,61.43
2022-10-30T17:04:02.178Z,61.58
2022-10-30T17:06:42.425Z,61.75
2022-10-30T17:09:27.645Z,61.86
2022-10-30T17:12:13.213Z,61.96
2022-10-30T17:14:51.540Z,62.05
2022-10-30T17:17:35.056Z,62.03
2022-10-30T17:20:13.367Z,62.28
2022-10-30T17:22:45.094Z,62.40
2022-10-30T17:25:32.210Z,62.31
2022-10-30T17:28:03.864Z,62.66
2022-10-30T17:30:40.844Z,62.73
2022-10-30T17:33:36.331Z,63.01
2022-10-30T17:36:09.944Z,63.22
2022-10-30T17:38:43.197Z,63.35
2022-10-30T17:41:16.860Z,63.42
2022-10-30T17:43:53.752Z,63.52
2022-10-30T17:46:26.660Z,63.73
2022-10-30T17:49:00.461Z,63.67
2022-10-30T17:51:32.729Z,63.76
2022-10-30T17:54:07.046Z,64.04
2022-10-30T17:56:38.831Z,64.03
2022-10-30T17:59:10.535Z,63.98
2022-10-30T18:01:42.395Z,64.22
2022-10-30T18:04:20.597Z,64.38
2022-10-30T18:06:52.950Z,64.26
2022-10-30T18:09:24.546Z,64.45
2022-10-30T18:11:57.104Z,64.42
2022-10-30T18:14:28.832Z,64.52
2022-10-30T18:17:00.642Z,64.69
2022-10-30T18:19:32.230Z,64.68
2022-10-30T18:22:04.665Z,64.85
2022-10-30T18:24:36.417Z,64.79
2022-10-30T18:27:08.082Z,65.02
2022-10-30T18:29:39.673Z,65.20
2022-10-30T18:32:12.939Z,65.27
2022-10-30T18:34:44.673Z,65.20
2022-10-30T18:37:16.560Z,65.33
2022-10-30T18:39:48.146Z,65.44
2022-10-30T18:42:24.502Z,65.65
2022-10-30T18:44:56.084Z,65.70
2022-10-30T18:47:27.806Z,65.75
2022-10-30T18:49:59.384Z,65.67
2022-10-30T18:52:31.225Z,65.84
2022-10-30T18:55:02.853Z,65.77
2022-10-30T18:57:34.555Z,65.88
2022-10-30T19:00:08.746Z,66.06
2022-10-30T19:02:40.607Z,66.15
2022-10-30T19:05:27.197Z,66.12
2022-10-30T19:08:01.223Z,66.10
2022-10-30T19:10:38.917Z,66.21
2022-10-30T19:13:16.720Z,66.20
2022-10-30T19:15:52.131Z,66.32
2022-10-30T19:18:25.992Z,66.56
2022-10-30T19:21:04.476Z,66.45
2022-10-30T19:23:38.061Z,66.57
2022-10-30T19:28:46.871Z,66.58
2022-10-30T19:31:19.963Z,66.49
2022-10-30T19:33:56.143Z,66.71
2022-10-30T19:36:34.119Z,66.64
2022-10-30T19:39:12.449Z,66.71
2022-10-30T19:41:44.287Z,66.78
2022-10-30T19:44:16.143Z,66.78
2022-10-30T19:46:47.916Z,66.74
2022-10-30T19:49:21.649Z,66.80
2022-10-30T19:51:53.484Z,67.02
2022-10-30T19:54:25.238Z,66.98
2022-10-30T19:56:56.833Z,66.99
2022-10-30T19:59:28.562Z,67.23
2022-10-30T20:02:00.191Z,67.18
2022-10-30T20:04:31.946Z,67.37
2022-10-30T20:07:03.450Z,67.47
2022-10-30T20:09:35.025Z,67.40
2022-10-30T20:12:07.148Z,67.48
2022-10-30T20:14:38.709Z,67.54
2022-10-30T20:17:12.386Z,67.51
2022-10-30T20:19:44.412Z,67.57
2022-10-30T20:22:15.911Z,67.73
2022-10-30T20:24:47.576Z,67.72
2022-10-30T20:27:19.236Z,67.76
2022-10-30T20:29:51.282Z,67.87
2022-10-30T20:32:23.212Z,67.83
2022-10-30T20:34:54.906Z,67.90
2022-10-30T20:37:26.476Z,67.99
2022-10-30T20:39:58.058Z,68.05
2022-10-30T20:42:36.800Z,68.06
2022-10-30T20:45:15.110Z,68.01
2022-10-30T20:47:47.678Z,68.00
2022-10-30T20:50:19.957Z,68.00
2022-10-30T20:52:53.420Z,67.99
2022-10-30T20:55:25.040Z,68.03
2022-10-30T20:57:56.932Z,68.06
2022-10-30T21:00:28.933Z,68.07
2022-10-30T21:03:04.383Z,68.27
2022-10-30T21:05:50.333Z,68.31
2022-10-30T21:08:22.284Z,68.40
2022-10-30T21:10:53.879Z,68.42
2022-10-30T21:13:25.426Z,68.51
2022-10-30T21:16:00.939Z,68.57
2022-10-30T21:18:33.497Z,68.69
2022-10-30T21:21:06.072Z,68.85
2022-10-30T21:23:37.853Z,68.93
2022-10-30T21:26:12.252Z,69.05
2022-10-30T21:28:44.274Z,69.11
2022-10-30T21:31:16.877Z,69.21
2022-10-30T21:33:48.549Z,69.21
2022-10-30T21:36:21.613Z,69.21
2022-10-30T21:38:53.385Z,69.25
2022-10-30T21:41:25.901Z,69.18
2022-10-30T21:43:59.131Z,69.33
2022-10-30T21:46:32.605Z,69.48
2022-10-30T21:49:07.958Z,69.33
2022-10-30T21:51:40.047Z,69.39
2022-10-30T21:54:11.748Z,69.47
2022-10-30T21:56:43.506Z,69.47
2022-10-30T21:59:15.805Z,69.53
2022-10-30T22:01:47.499Z,69.58
2022-10-30T22:04:20.278Z,69.56
2022-10-30T22:06:51.907Z,69.65
2022-10-30T22:09:23.687Z,69.69
2022-10-30T22:11:55.346Z,69.65
2022-10-30T22:14:26.988Z,69.76
2022-10-30T22:16:58.578Z,69.79
2022-10-30T22:19:30.314Z,69.69
2022-10-30T22:22:02.905Z,69.78
2022-10-30T22:24:34.545Z,69.92
2022-10-30T22:27:06.430Z,69.98
2022-10-30T22:29:38.029Z,70.03
2022-10-30T22:32:09.652Z,70.12
2022-10-30T22:34:41.286Z,70.14
2022-10-30T22:37:12.875Z,70.09
2022-10-30T22:39:44.500Z,70.04
2022-10-30T22:42:16.088Z,70.12
2022-10-30T22:44:47.946Z,70.15
2022-10-30T22:47:19.648Z,70.23
2022-10-30T22:49:51.373Z,70.39
2022-10-30T22:52:23.126Z,70.39
2022-10-30T22:54:54.666Z,70.41
2022-10-30T22:57:26.299Z,70.53
2022-10-30T22:59:57.959Z,70.59
2022-10-30T23:02:29.675Z,70.70
2022-10-30T23:05:01.475Z,70.69
2022-10-30T23:07:33.050Z,70.69
2022-10-30T23:10:05.163Z,70.76
2022-10-30T23:12:36.873Z,70.82
2022-10-30T23:15:11.662Z,70.88
2022-10-30T23:17:43.222Z,70.87
2022-10-30T23:20:14.891Z,70.83
2022-10-30T23:22:46.597Z,70.82
2022-10-30T23:25:18.333Z,70.89
2022-10-30T23:27:49.912Z,70.84
2022-10-30T23:30:21.543Z,70.85
2022-10-30T23:32:54.163Z,70.90
2022-10-30T23:35:25.795Z,70.88
2022-10-30T23:37:59.363Z,70.91
2022-10-30T23:40:30.932Z,70.96
2022-10-30T23:43:03.063Z,70.97
2022-10-30T23:45:37.295Z,70.99
2022-10-30T23:48:08.137Z,70.99
2022-10-30T23:50:39.726Z,70.97
2022-10-30T23:53:11.325Z,71.07
2022-10-30T23:55:49.715Z,71.05
2022-10-30T23:58:21.660Z,71.08
